createdAt,value
2022-10-04T00:00:27.883Z,6.75
2022-10-04T00:03:24.722Z,5.95
2022-10-04T00:05:58.281Z,6.28
2022-10-04T00:08:33.793Z,6.63
2022-10-04T00:11:06.056Z,6.68
2022-10-04T00:13:35.539Z,8.45
2022-10-04T00:16:02.505Z,6.75
2022-10-04T00:18:40.511Z,6.75
2022-10-04T00:21:09.002Z,7.20
2022-10-04T00:23:38.490Z,7.13
2022-10-04T00:26:12.968Z,6.93
2022-10-04T00:28:40.145Z,6.70
2022-10-04T00:31:09.808Z,6.95
2022-10-04T00:36:25.832Z,6.80
2022-10-04T00:39:25.604Z,6.95
2022-10-04T00:42:14.114Z,6.85
2022-10-04T00:45:02.304Z,6.40
2022-10-04T00:47:46.970Z,6.80
2022-10-04T00:50:28.747Z,8.02
2022-10-04T00:52:59.216Z,6.88
2022-10-04T00:55:35.834Z,6.55
2022-10-04T00:58:08.722Z,7.72
2022-10-04T01:00:37.096Z,6.88
2022-10-04T01:03:13.838Z,6.50
2022-10-04T01:05:45.479Z,6.60
2022-10-04T01:08:22.848Z,6.60
2022-10-04T01:11:18.029Z,6.57
2022-10-04T01:13:56.603Z,6.53
2022-10-04T01:16:27.600Z,7.32
2022-10-04T01:18:54.323Z,8.02
2022-10-04T01:21:24.218Z,7.93
2022-10-04T01:23:52.125Z,7.50
2022-10-04T01:26:32.134Z,6.53
2022-10-04T01:29:01.825Z,7.55
2022-10-04T01:33:56.564Z,6.65
2022-10-04T01:36:23.805Z,6.78
2022-10-04T01:38:50.868Z,7.88
2022-10-04T01:41:21.726Z,7.97
2022-10-04T01:43:53.068Z,7.88
2022-10-04T01:46:25.628Z,7.55
2022-10-04T01:48:57.055Z,7.50
2022-10-04T01:51:31.777Z,7.65
2022-10-04T01:54:10.181Z,7.50
2022-10-04T01:56:46.836Z,7.88
2022-10-04T01:59:29.217Z,7.72
2022-10-04T02:02:05.812Z,7.60
2022-10-04T02:04:35.755Z,7.50
2022-10-04T02:07:04.609Z,6.50
2022-10-04T02:09:39.166Z,7.07
2022-10-04T02:12:06.832Z,7.43
2022-10-04T02:14:36.966Z,7.30
2022-10-04T02:17:10.498Z,7.95
2022-10-04T02:19:42.859Z,8.15
2022-10-04T02:22:11.108Z,7.90
2022-10-04T02:24:42.624Z,7.85
2022-10-04T02:27:09.326Z,8.48
2022-10-04T02:29:36.133Z,8.40
2022-10-04T02:32:23.965Z,8.93
2022-10-04T02:34:51.551Z,8.10
2022-10-04T02:37:18.629Z,8.25
2022-10-04T02:39:54.154Z,8.20
2022-10-04T02:42:35.392Z,8.90
2022-10-04T02:45:13.795Z,8.48
2022-10-04T02:47:49.989Z,8.63
2022-10-04T02:50:23.850Z,7.93
2022-10-04T02:52:58.431Z,8.20
2022-10-04T02:55:31.041Z,8.10
2022-10-04T02:57:59.737Z,8.38
2022-10-04T03:00:29.801Z,7.53
2022-10-04T03:03:23.552Z,8.00
2022-10-04T03:05:58.164Z,7.93
2022-10-04T03:08:26.893Z,8.25
2022-10-04T03:10:53.820Z,7.63
2022-10-04T03:13:21.375Z,7.45
2022-10-04T03:15:50.158Z,7.22
2022-10-04T03:18:18.284Z,8.07
2022-10-04T03:20:47.251Z,7.07
2022-10-04T03:23:17.351Z,6.88
2022-10-04T03:26:05.846Z,7.22
2022-10-04T03:28:32.532Z,8.15
2022-10-04T03:31:00.474Z,8.18
2022-10-04T03:33:28.749Z,8.20
2022-10-04T03:35:58.460Z,7.97
2022-10-04T03:38:28.329Z,8.23
2022-10-04T03:41:01.708Z,7.93
2022-10-04T03:43:31.762Z,7.47
2022-10-04T03:46:00.659Z,7.78
2022-10-04T03:48:42.758Z,7.95
2022-10-04T03:51:16.045Z,8.10
2022-10-04T03:53:45.732Z,8.05
2022-10-04T03:58:42.916Z,7.47
2022-10-04T04:01:24.808Z,8.38
2022-10-04T04:04:18.964Z,8.40
2022-10-04T04:06:57.594Z,8.35
2022-10-04T04:09:43.634Z,9.10
2022-10-04T04:12:17.397Z,8.60
2022-10-04T04:14:46.869Z,10.23
2022-10-04T04:17:27.590Z,9.95
2022-10-04T04:20:00.457Z,9.70
2022-10-04T04:22:31.380Z,9.52
2022-10-04T04:25:05.531Z,8.63
2022-10-04T04:27:36.316Z,10.30
2022-10-04T04:30:06.356Z,9.38
2022-10-04T04:32:52.568Z,9.63
2022-10-04T04:35:25.504Z,9.43
2022-10-04T04:38:23.733Z,9.50
2022-10-04T04:40:55.589Z,8.55
2022-10-04T04:43:25.821Z,8.70
2022-10-04T04:46:14.918Z,8.75
2022-10-04T04:48:45.088Z,9.18
2022-10-04T04:51:20.866Z,8.65
2022-10-04T04:53:49.001Z,8.98
2022-10-04T04:56:23.306Z,8.18
2022-10-04T04:58:52.630Z,8.98
2022-10-04T05:01:33.902Z,8.30
2022-10-04T05:04:24.186Z,8.15
2022-10-04T05:07:06.216Z,8.25
2022-10-04T05:09:36.135Z,7.35
2022-10-04T05:12:12.795Z,7.88
2022-10-04T05:14:45.624Z,7.10
2022-10-04T05:17:22.946Z,7.28
2022-10-04T05:19:51.958Z,7.32
2022-10-04T05:22:23.072Z,6.88
2022-10-04T05:24:54.714Z,7.07
2022-10-04T05:27:29.938Z,7.18
2022-10-04T05:30:14.593Z,6.53
2022-10-04T05:32:54.897Z,7.85
2022-10-04T05:35:23.425Z,7.18
2022-10-04T05:38:07.822Z,7.13
2022-10-04T05:40:52.507Z,8.07
2022-10-04T05:43:34.952Z,7.95
2022-10-04T05:46:25.515Z,7.88
2022-10-04T05:49:08.339Z,7.53
2022-10-04T05:51:49.099Z,7.22
2022-10-04T05:54:23.734Z,6.60
2022-10-04T05:57:20.655Z,8.15
2022-10-04T06:00:04.122Z,7.03
2022-10-04T06:02:52.010Z,7.28
2022-10-04T06:05:29.346Z,5.75
2022-10-04T06:08:21.184Z,7.63
2022-10-04T06:11:05.327Z,7.20
2022-10-04T06:13:53.636Z,7.50
2022-10-04T06:16:32.351Z,7.72
2022-10-04T06:19:24.005Z,7.47
2022-10-04T06:21:51.794Z,7.85
2022-10-04T06:24:27.127Z,7.30
2022-10-04T06:27:04.597Z,7.38
2022-10-04T06:29:38.724Z,8.02
2022-10-04T06:32:20.512Z,7.35
2022-10-04T06:35:16.433Z,8.23
2022-10-04T06:38:07.128Z,7.82
2022-10-04T06:41:15.417Z,8.25
2022-10-04T06:43:47.688Z,8.27
2022-10-04T06:46:23.443Z,7.63
2022-10-04T06:49:09.833Z,8.27
2022-10-04T06:51:52.693Z,7.90
2022-10-04T06:54:31.972Z,7.88
2022-10-04T06:56:58.493Z,8.35
2022-10-04T06:59:54.493Z,8.23
2022-10-04T07:02:48.609Z,8.80
2022-10-04T07:05:34.089Z,9.02
2022-10-04T07:08:12.262Z,8.95
2022-10-04T07:10:56.793Z,9.45
2022-10-04T07:13:34.409Z,9.32
2022-10-04T07:16:17.291Z,9.00
2022-10-04T07:19:24.750Z,9.00
2022-10-04T07:22:06.852Z,9.05
2022-10-04T07:25:27.937Z,9.50
2022-10-04T07:28:29.435Z,10.25
2022-10-04T07:31:03.665Z,10.07
2022-10-04T07:33:35.609Z,10.00
2022-10-04T07:36:10.729Z,9.10
2022-10-04T07:39:01.915Z,8.65
2022-10-04T07:41:44.259Z,9.48
2022-10-04T07:44:46.649Z,8.05
2022-10-04T07:47:20.337Z,10.27
2022-10-04T07:49:50.592Z,9.32
2022-10-04T07:52:29.696Z,8.88
2022-10-04T07:55:17.532Z,9.30
2022-10-04T07:58:09.502Z,8.77
2022-10-04T08:00:47.453Z,9.18
2022-10-04T08:03:56.519Z,9.25
2022-10-04T08:06:27.610Z,9.18
2022-10-04T08:09:17.181Z,9.15
2022-10-04T08:14:29.795Z,9.05
2022-10-04T08:17:15.635Z,9.25
2022-10-04T08:20:12.327Z,9.10
2022-10-04T08:23:16.476Z,9.32
2022-10-04T08:25:59.539Z,9.07
2022-10-04T08:29:35.772Z,8.63
2022-10-04T08:32:31.713Z,9.20
2022-10-04T08:35:20.073Z,8.73
2022-10-04T08:37:49.594Z,8.35
2022-10-04T08:40:33.251Z,8.55
2022-10-04T08:43:30.858Z,8.65
2022-10-04T08:46:09.958Z,8.82
2022-10-04T08:48:53.734Z,8.13
2022-10-04T08:51:20.272Z,7.88
2022-10-04T08:54:19.125Z,7.50
2022-10-04T08:56:57.920Z,7.57
2022-10-04T09:00:02.078Z,7.55
2022-10-04T09:02:55.484Z,7.30
2022-10-04T09:05:37.946Z,7.70
2022-10-04T09:08:42.435Z,7.30
2022-10-04T09:11:28.285Z,6.88
2022-10-04T09:14:07.008Z,7.57
2022-10-04T09:17:19.768Z,7.80
2022-10-04T09:20:39.087Z,7.03
2022-10-04T09:23:34.059Z,6.72
2022-10-04T09:26:19.437Z,6.75
2022-10-04T09:28:52.232Z,6.30
2022-10-04T09:32:04.332Z,5.50
2022-10-04T09:34:53.188Z,5.38
2022-10-04T09:37:41.525Z,5.63
2022-10-04T09:41:05.958Z,4.82
2022-10-04T09:43:57.298Z,4.70
2022-10-04T09:46:56.778Z,4.03
2022-10-04T09:49:37.748Z,3.78
2022-10-04T09:52:21.042Z,3.60
2022-10-04T09:55:04.961Z,3.67
2022-10-04T09:58:01.955Z,3.63
2022-10-04T10:00:40.953Z,4.38
2022-10-04T10:03:26.444Z,3.92
2022-10-04T10:06:05.201Z,3.53
2022-10-04T10:08:45.054Z,4.40
2022-10-04T10:11:42.753Z,4.18
2022-10-04T10:14:21.631Z,3.75
2022-10-04T10:17:25.943Z,3.40
2022-10-04T10:20:16.657Z,3.50
2022-10-04T10:22:55.385Z,3.75
2022-10-04T10:25:47.819Z,3.63
2022-10-04T10:28:15.088Z,3.22
2022-10-04T10:31:06.183Z,3.88
2022-10-04T10:34:11.015Z,3.45
2022-10-04T10:36:59.961Z,3.47
2022-10-04T10:39:43.958Z,5.65
2022-10-04T10:42:49.006Z,3.80
2022-10-04T10:45:38.821Z,4.07
2022-10-04T10:48:35.567Z,4.50
2022-10-04T10:51:29.591Z,3.47
2022-10-04T10:54:34.967Z,3.70
2022-10-04T10:57:10.716Z,3.55
2022-10-04T10:59:56.546Z,3.08
2022-10-04T11:02:47.586Z,3.00
2022-10-04T11:08:02.393Z,3.40
2022-10-04T11:11:06.384Z,2.95
2022-10-04T11:14:12.328Z,3.17
2022-10-04T11:17:30.981Z,2.80
2022-10-04T11:20:24.849Z,2.50
2022-10-04T11:23:11.041Z,3.40
2022-10-04T11:25:43.783Z,2.78
2022-10-04T11:28:31.910Z,2.90
2022-10-04T11:30:58.531Z,3.75
2022-10-04T11:33:46.609Z,3.08
2022-10-04T11:36:16.044Z,3.00
2022-10-04T11:41:52.906Z,3.35
2022-10-04T11:44:48.521Z,3.08
2022-10-04T11:47:39.589Z,3.40
2022-10-04T11:50:29.166Z,3.75
2022-10-04T11:53:22.010Z,3.58
2022-10-04T11:56:04.059Z,3.17
2022-10-04T11:58:49.843Z,3.75
2022-10-04T12:01:30.332Z,2.97
2022-10-04T12:04:18.502Z,3.17
2022-10-04T12:07:22.649Z,3.10
2022-10-04T12:10:00.803Z,3.00
2022-10-04T12:12:36.870Z,2.77
2022-10-04T12:15:41.937Z,3.17
2022-10-04T12:18:14.940Z,2.85
2022-10-04T12:21:21.984Z,2.70
2022-10-04T12:24:07.294Z,3.40
2022-10-04T12:26:49.194Z,3.35
2022-10-04T12:29:30.975Z,3.03
2022-10-04T12:32:04.366Z,3.08
2022-10-04T12:34:55.389Z,2.92
2022-10-04T12:37:34.612Z,2.95
2022-10-04T12:40:14.779Z,3.13
2022-10-04T12:42:53.078Z,2.83
2022-10-04T12:45:27.351Z,3.05
2022-10-04T12:48:05.724Z,2.58
2022-10-04T12:51:04.010Z,2.75
2022-10-04T12:53:55.479Z,2.30
2022-10-04T12:56:46.293Z,2.83
2022-10-04T12:59:19.320Z,2.80
2022-10-04T13:02:21.823Z,2.63
2022-10-04T13:04:55.239Z,2.78
2022-10-04T13:07:51.263Z,3.20
2022-10-04T13:10:24.670Z,2.70
2022-10-04T13:12:55.222Z,2.50
2022-10-04T13:18:46.455Z,2.58
2022-10-04T13:21:35.453Z,2.67
2022-10-04T13:24:56.580Z,2.70
2022-10-04T13:27:28.665Z,2.55
2022-10-04T13:30:16.797Z,2.97
2022-10-04T13:32:54.841Z,2.90
2022-10-04T13:35:31.928Z,2.70
2022-10-04T13:38:31.687Z,2.75
2022-10-04T13:41:30.996Z,2.80
2022-10-04T13:46:58.927Z,2.30
2022-10-04T13:50:06.818Z,2.50
2022-10-04T13:53:14.012Z,2.63
2022-10-04T13:56:30.037Z,2.47
2022-10-04T13:59:35.207Z,2.17
2022-10-04T14:02:21.423Z,2.10
2022-10-04T14:05:25.753Z,2.20
2022-10-04T14:08:17.455Z,2.40
2022-10-04T14:11:34.581Z,2.22
2022-10-04T14:15:01.457Z,1.80
2022-10-04T14:17:46.290Z,2.33
2022-10-04T14:20:39.070Z,2.50
2022-10-04T14:23:08.577Z,2.55
2022-10-04T14:25:53.421Z,3.42
2022-10-04T14:28:51.523Z,3.25
2022-10-04T14:31:42.309Z,3.20
2022-10-04T14:34:47.612Z,2.90
2022-10-04T14:37:42.883Z,2.78
2022-10-04T14:40:27.796Z,2.60
2022-10-04T14:43:30.643Z,3.00
2022-10-04T14:46:34.273Z,2.72
2022-10-04T14:49:13.346Z,2.42
2022-10-04T14:51:54.680Z,2.30
2022-10-04T14:54:28.964Z,3.60
2022-10-04T14:57:12.192Z,3.35
2022-10-04T15:00:11.425Z,3.00
2022-10-04T15:05:08.390Z,4.00
2022-10-04T15:07:39.182Z,4.25
2022-10-04T15:10:22.480Z,2.80
2022-10-04T15:13:11.525Z,2.40
2022-10-04T15:15:45.107Z,2.50
2022-10-04T15:18:38.057Z,2.60
2022-10-04T15:21:32.478Z,2.47
2022-10-04T15:24:18.091Z,2.38
2022-10-04T15:27:22.099Z,2.60
2022-10-04T15:30:19.646Z,2.78
2022-10-04T15:33:13.647Z,2.80
2022-10-04T15:36:11.529Z,2.80
2022-10-04T15:39:06.247Z,2.20
2022-10-04T15:42:11.995Z,2.90
2022-10-04T15:44:59.469Z,2.60
2022-10-04T15:47:35.045Z,2.42
2022-10-04T15:50:26.102Z,3.22
2022-10-04T15:53:20.100Z,3.20
2022-10-04T15:56:09.962Z,2.90
2022-10-04T15:59:09.053Z,2.85
2022-10-04T16:01:51.958Z,2.78
2022-10-04T16:04:43.327Z,2.70
2022-10-04T16:07:47.781Z,3.95
2022-10-04T16:10:52.201Z,4.10
2022-10-04T16:13:28.388Z,4.18
2022-10-04T16:16:17.550Z,4.45
2022-10-04T16:18:58.747Z,4.38
2022-10-04T16:21:49.963Z,3.83
2022-10-04T16:24:19.488Z,3.47
2022-10-04T16:26:47.579Z,3.80
2022-10-04T16:30:14.438Z,3.43
2022-10-04T16:32:44.759Z,3.35
2022-10-04T16:35:25.309Z,3.50
2022-10-04T16:38:04.140Z,3.53
2022-10-04T16:40:30.683Z,3.70
2022-10-04T16:43:03.829Z,3.35
2022-10-04T16:45:49.475Z,3.80
2022-10-04T16:48:34.633Z,4.43
2022-10-04T16:51:22.319Z,3.97
2022-10-04T16:54:01.229Z,4.78
2022-10-04T16:56:31.709Z,4.35
2022-10-04T16:59:13.633Z,5.35
2022-10-04T17:01:55.507Z,5.03
2022-10-04T17:04:36.110Z,4.97
2022-10-04T17:07:13.144Z,5.25
2022-10-04T17:09:48.859Z,5.50
2022-10-04T17:12:27.775Z,5.80
2022-10-04T17:15:20.902Z,6.00
2022-10-04T17:18:01.177Z,5.45
2022-10-04T17:20:31.039Z,6.20
2022-10-04T17:23:19.396Z,6.60
2022-10-04T17:26:13.551Z,5.93
2022-10-04T17:28:56.670Z,6.43
2022-10-04T17:31:35.618Z,7.55
2022-10-04T17:34:34.095Z,7.35
2022-10-04T17:37:20.854Z,7.15
2022-10-04T17:40:12.315Z,7.55
2022-10-04T17:42:57.826Z,9.48
2022-10-04T17:45:56.025Z,12.20
2022-10-04T17:49:00.937Z,11.82
2022-10-04T17:51:52.864Z,11.75
2022-10-04T17:54:57.728Z,11.90
2022-10-04T17:57:33.271Z,11.30
2022-10-04T18:00:12.001Z,12.15
2022-10-04T18:02:59.564Z,11.70
2022-10-04T18:05:41.712Z,10.75
2022-10-04T18:08:39.281Z,9.80
2022-10-04T18:11:27.134Z,9.10
2022-10-04T18:14:00.760Z,8.23
2022-10-04T18:16:50.933Z,7.72
2022-10-04T18:19:36.181Z,8.70
2022-10-04T18:22:14.910Z,7.72
2022-10-04T18:25:22.403Z,7.35
2022-10-04T18:27:51.723Z,7.85
2022-10-04T18:30:21.267Z,8.07
2022-10-04T18:35:26.685Z,9.57
2022-10-04T18:38:05.459Z,9.50
2022-10-04T18:40:41.715Z,8.73
2022-10-04T18:43:29.665Z,8.38
2022-10-04T18:46:21.008Z,8.43
2022-10-04T18:49:04.203Z,8.48
2022-10-04T18:51:40.570Z,7.50
2022-10-04T18:54:22.024Z,8.02
2022-10-04T18:56:56.432Z,8.57
2022-10-04T18:59:58.514Z,7.57
2022-10-04T19:02:42.672Z,7.43
2022-10-04T19:05:23.721Z,7.00
2022-10-04T19:08:21.781Z,6.18
2022-10-04T19:11:19.162Z,6.55
2022-10-04T19:14:06.094Z,6.70
2022-10-04T19:16:49.094Z,6.30
2022-10-04T19:19:16.164Z,7.20
2022-10-04T19:21:59.148Z,7.03
2022-10-04T19:24:48.255Z,6.63
2022-10-04T19:27:30.055Z,7.47
2022-10-04T19:30:15.201Z,7.47
2022-10-04T19:32:59.572Z,7.40
2022-10-04T19:36:04.182Z,6.82
2022-10-04T19:38:55.437Z,7.90
2022-10-04T19:41:47.826Z,7.72
2022-10-04T19:44:23.718Z,7.57
2022-10-04T19:46:59.215Z,7.38
2022-10-04T19:50:03.688Z,8.10
2022-10-04T19:52:55.040Z,8.45
2022-10-04T19:55:38.068Z,8.50
2022-10-04T19:58:41.578Z,9.07
2022-10-04T20:01:16.598Z,8.93
2022-10-04T20:03:43.932Z,9.27
2022-10-04T20:06:19.816Z,9.25
2022-10-04T20:08:51.166Z,9.13
2022-10-04T20:11:27.657Z,8.63
2022-10-04T20:14:09.216Z,9.50
2022-10-04T20:17:03.185Z,8.80
2022-10-04T20:19:33.045Z,8.68
2022-10-04T20:22:09.995Z,9.45
2022-10-04T20:24:36.473Z,8.85
2022-10-04T20:27:09.154Z,9.23
2022-10-04T20:29:38.795Z,9.25
2022-10-04T20:34:35.583Z,9.20
2022-10-04T20:37:04.329Z,9.13
2022-10-04T20:39:45.693Z,9.30
2022-10-04T20:42:29.858Z,9.82
2022-10-04T20:45:01.700Z,8.52
2022-10-04T20:47:37.990Z,8.43
2022-10-04T20:50:14.355Z,8.73
2022-10-04T20:52:46.997Z,8.80
2022-10-04T20:55:28.128Z,8.77
2022-10-04T20:57:56.303Z,7.55
2022-10-04T21:00:25.796Z,8.15
2022-10-04T21:05:35.582Z,7.55
2022-10-04T21:08:23.391Z,7.82
2022-10-04T21:11:13.233Z,7.60
2022-10-04T21:13:49.436Z,7.38
2022-10-04T21:16:40.972Z,7.93
2022-10-04T21:19:32.603Z,7.53
2022-10-04T21:22:01.322Z,7.10
2022-10-04T21:24:53.906Z,7.77
2022-10-04T21:27:38.211Z,7.25
2022-10-04T21:30:14.387Z,7.20
2022-10-04T21:32:40.984Z,6.55
2022-10-04T21:35:09.070Z,6.95
2022-10-04T21:37:35.988Z,6.60
2022-10-04T21:40:04.701Z,6.53
2022-10-04T21:42:31.452Z,5.90
2022-10-04T21:44:58.209Z,6.60
2022-10-04T21:47:24.976Z,6.57
2022-10-04T21:49:52.050Z,5.78
2022-10-04T21:52:18.737Z,6.20
2022-10-04T21:54:45.881Z,7.25
2022-10-04T21:57:13.234Z,6.20
2022-10-04T21:59:40.026Z,5.93
2022-10-04T22:02:07.892Z,6.40
2022-10-04T22:04:34.757Z,6.63
2022-10-04T22:07:01.414Z,6.40
2022-10-04T22:09:28.981Z,6.47
2022-10-04T22:11:55.959Z,6.57
2022-10-04T22:14:22.504Z,6.07
2022-10-04T22:16:49.645Z,6.80
2022-10-04T22:19:16.599Z,6.00
2022-10-04T22:21:43.540Z,6.10
2022-10-04T22:24:18.464Z,6.97
2022-10-04T22:26:45.713Z,6.55
2022-10-04T22:29:14.518Z,6.15
2022-10-04T22:31:44.133Z,7.40
2022-10-04T22:34:19.872Z,6.88
2022-10-04T22:36:49.567Z,6.43
2022-10-04T22:39:20.749Z,6.20
2022-10-04T22:41:52.444Z,6.40
2022-10-04T22:44:22.382Z,6.22
2022-10-04T22:46:52.765Z,6.07
2022-10-04T22:49:25.344Z,6.32
2022-10-04T22:51:54.440Z,6.28
2022-10-04T22:54:24.190Z,6.85
2022-10-04T22:56:51.647Z,6.05
2022-10-04T22:59:19.894Z,6.15
2022-10-04T23:01:47.353Z,6.40
2022-10-04T23:04:25.614Z,6.10
2022-10-04T23:06:54.725Z,5.68
2022-10-04T23:09:21.373Z,6.28
2022-10-04T23:11:48.196Z,6.70
2022-10-04T23:14:15.115Z,6.43
2022-10-04T23:16:43.110Z,6.43
2022-10-04T23:19:12.569Z,6.57
2022-10-04T23:21:42.627Z,6.32
2022-10-04T23:24:18.583Z,6.13
2022-10-04T23:26:55.739Z,6.35
2022-10-04T23:29:29.922Z,6.30
2022-10-04T23:31:57.177Z,7.45
2022-10-04T23:34:27.637Z,6.63
2022-10-04T23:36:54.764Z,7.35
2022-10-04T23:39:28.549Z,6.28
2022-10-04T23:41:56.518Z,6.90
2022-10-04T23:44:28.715Z,7.18
2022-10-04T23:46:55.243Z,7.00
2022-10-04T23:49:22.678Z,6.88
2022-10-04T23:51:55.520Z,7.05
2022-10-04T23:54:22.516Z,6.90
2022-10-04T23:56:49.321Z,7.43
2022-10-04T23:59:18.164Z,7.00
